Time;durP1;ratioP1;P1;durP2;ratioP2;P2;SDS_P1;SDS_P2;PMS_P1;PMS_P2;Temp;Humidity;BMP_temperature;BMP_pressure;BME280_temperature;BME280_humidity;BME280_pressure;Samples;Min_cycle;Max_cycle;Signal;HPM_P1;HPM_P2
2021/03/24 00:01:23;;;;;;;;;;;15.50;60.40;;;;;;5037471;28;19916;-73
2021/03/24 00:03:49;;;;;;;;;;;15.50;60.40;;;;;;5044547;28;19919;-72
2021/03/24 00:06:15;;;;;;;;;;;15.50;60.40;;;;;;5040786;28;19913;-72
2021/03/24 00:08:41;;;;;;;;;;;15.50;60.40;;;;;;5028731;28;19924;-72
2021/03/24 00:11:07;;;;;;;;;;;15.60;60.40;;;;;;5017014;28;20323;-73
2021/03/24 00:13:33;;;;;;;;;;;15.50;60.40;;;;;;5037271;28;19924;-74
2021/03/24 00:15:59;;;;;;;;;;;15.50;60.40;;;;;;5046039;28;20333;-72
2021/03/24 00:18:24;;;;;;;;;;;15.50;60.40;;;;;;5033230;28;19913;-72
2021/03/24 00:20:50;;;;;;;;;;;15.60;60.50;;;;;;5040179;28;20423;-72
2021/03/24 00:23:16;;;;;;;;;;;15.60;60.40;;;;;;5043098;28;19955;-72
2021/03/24 00:25:41;;;;;;;;;;;15.50;60.40;;;;;;5047960;28;19916;-73
2021/03/24 00:28:07;;;;;;;;;;;15.50;60.40;;;;;;5038804;28;19917;-75
2021/03/24 00:30:35;;;;;;;;;;;15.50;60.40;;;;;;5031503;28;19917;-72
2021/03/24 00:33:02;;;;;;;;;;;15.50;60.50;;;;;;5025936;28;19948;-72
2021/03/24 00:35:27;;;;;;;;;;;15.50;60.50;;;;;;5031047;28;19959;-72
2021/03/24 00:37:53;;;;;;;;;;;15.50;60.40;;;;;;5042357;28;19925;-72
2021/03/24 00:40:27;;;;;;;;;;;15.50;60.50;;;;;;5032809;28;19928;-72
2021/03/24 00:42:52;;;;;;;;;;;15.60;60.50;;;;;;5042013;28;19921;-72
2021/03/24 00:45:18;;;;;;;;;;;15.50;60.50;;;;;;5048444;28;19923;-72
2021/03/24 00:47:43;;;;;;;;;;;15.50;60.50;;;;;;5036130;28;20285;-73
2021/03/24 00:50:11;;;;;;;;;;;15.50;60.50;;;;;;5032864;28;19921;-72
2021/03/24 00:52:36;;;;;;;;;;;15.50;60.50;;;;;;5040241;28;19924;-73
2021/03/24 00:55:02;;;;;;;;;;;15.50;60.50;;;;;;5045715;28;20416;-72
2021/03/24 00:57:28;;;;;;;;;;;15.50;60.50;;;;;;5034201;28;19913;-72
2021/03/24 00:59:55;;;;;;;;;;;15.50;60.50;;;;;;5045114;28;19970;-72
2021/03/24 01:02:20;;;;;;;;;;;15.50;60.50;;;;;;5071056;28;19962;-73
2021/03/24 01:04:46;;;;;;;;;;;15.50;60.60;;;;;;5039432;28;20349;-75
2021/03/24 01:07:12;;;;;;;;;;;15.50;60.50;;;;;;5052409;28;19921;-73
2021/03/24 01:09:37;;;;;;;;;;;15.50;60.60;;;;;;5050648;28;20259;-73
2021/03/24 01:12:03;;;;;;;;;;;15.50;60.50;;;;;;5031281;28;20381;-73
2021/03/24 01:14:29;;;;;;;;;;;15.50;60.60;;;;;;5021654;28;20290;-72
2021/03/24 01:16:54;;;;;;;;;;;15.40;60.60;;;;;;5040451;28;19913;-73
2021/03/24 01:19:20;;;;;;;;;;;15.50;60.60;;;;;;5051781;28;19920;-72
2021/03/24 01:21:45;;;;;;;;;;;15.50;60.60;;;;;;5051664;28;20004;-71
2021/03/24 01:24:11;;;;;;;;;;;15.50;60.60;;;;;;5037183;28;19923;-72
2021/03/24 01:26:36;;;;;;;;;;;15.50;60.60;;;;;;5037600;28;19917;-71
2021/03/24 01:29:02;;;;;;;;;;;15.40;60.60;;;;;;5041618;28;19917;-75
2021/03/24 01:31:28;;;;;;;;;;;15.50;60.60;;;;;;5059586;28;19912;-72
2021/03/24 01:33:54;;;;;;;;;;;15.50;60.60;;;;;;5036404;28;20334;-73
2021/03/24 01:36:19;;;;;;;;;;;15.40;60.60;;;;;;5035438;28;19913;-72
2021/03/24 01:38:45;;;;;;;;;;;15.50;60.70;;;;;;5051874;28;19917;-72
2021/03/24 01:41:10;;;;;;;;;;;15.50;60.70;;;;;;5052747;28;19928;-72
2021/03/24 01:43:36;;;;;;;;;;;15.50;60.60;;;;;;5046147;28;19913;-72
2021/03/24 01:46:17;;;;;;;;;;;15.50;60.60;;;;;;5051446;28;19913;-73
2021/03/24 01:48:44;;;;;;;;;;;15.50;60.70;;;;;;5048921;28;19927;-72
2021/03/24 01:51:09;;;;;;;;;;;15.50;60.60;;;;;;5020586;28;19913;-71
2021/03/24 01:53:36;;;;;;;;;;;15.50;60.70;;;;;;5050911;28;19916;-72
2021/03/24 01:56:03;;;;;;;;;;;15.40;60.70;;;;;;5036059;28;19916;-72
2021/03/24 01:58:28;;;;;;;;;;;15.40;60.70;;;;;;5036507;28;19909;-72
2021/03/24 02:00:54;;;;;;;;;;;15.40;60.70;;;;;;5054764;28;20293;-73
2021/03/24 02:03:24;;;;;;;;;;;15.40;60.70;;;;;;5032685;28;19948;-72
2021/03/24 02:05:50;;;;;;;;;;;15.40;60.70;;;;;;5041898;28;19967;-72
2021/03/24 02:08:22;;;;;;;;;;;15.50;60.70;;;;;;5048193;28;20010;-72
2021/03/24 02:10:52;;;;;;;;;;;15.40;60.70;;;;;;5042955;28;20362;-73
2021/03/24 02:13:23;;;;;;;;;;;15.40;60.70;;;;;;5020432;28;19919;-72
2021/03/24 02:15:52;;;;;;;;;;;15.40;60.70;;;;;;5041533;28;19921;-72
2021/03/24 02:18:19;;;;;;;;;;;15.40;60.70;;;;;;5046520;28;19920;-73
2021/03/24 02:20:54;;;;;;;;;;;15.40;60.70;;;;;;5039947;28;20015;-72
2021/03/24 02:23:20;;;;;;;;;;;15.40;60.70;;;;;;5032150;28;21259;-73
2021/03/24 02:25:49;;;;;;;;;;;15.40;60.70;;;;;;5064482;28;20335;-72
2021/03/24 02:28:15;;;;;;;;;;;15.40;60.70;;;;;;5049773;28;19928;-72
2021/03/24 02:30:45;;;;;;;;;;;15.40;60.70;;;;;;5046208;28;19917;-72
2021/03/24 02:33:19;;;;;;;;;;;15.40;60.70;;;;;;5045012;28;19913;-72
2021/03/24 02:35:46;;;;;;;;;;;15.40;60.70;;;;;;5016703;28;19915;-72
2021/03/24 02:38:13;;;;;;;;;;;15.40;60.80;;;;;;5046821;28;19931;-73
2021/03/24 02:40:40;;;;;;;;;;;15.40;60.80;;;;;;5031738;28;19921;-73
2021/03/24 02:43:06;;;;;;;;;;;15.40;60.70;;;;;;5037270;28;20281;-72
2021/03/24 02:45:33;;;;;;;;;;;15.40;60.70;;;;;;5031538;28;19918;-72
2021/03/24 02:48:00;;;;;;;;;;;15.40;60.70;;;;;;5035850;28;19924;-73
2021/03/24 02:50:25;;;;;;;;;;;15.40;60.80;;;;;;5042015;28;19971;-72
2021/03/24 02:52:52;;;;;;;;;;;15.40;60.70;;;;;;5024328;28;19913;-72
2021/03/24 02:55:18;;;;;;;;;;;15.40;60.80;;;;;;5038021;28;19920;-73
2021/03/24 02:57:43;;;;;;;;;;;15.40;60.70;;;;;;5034798;28;19913;-72
2021/03/24 03:00:18;;;;;;;;;;;15.40;60.80;;;;;;5033831;28;19967;-73
2021/03/24 03:02:46;;;;;;;;;;;15.40;60.80;;;;;;5028694;28;20263;-72
2021/03/24 03:05:13;;;;;;;;;;;15.40;60.80;;;;;;5034172;28;19910;-72
2021/03/24 03:07:47;;;;;;;;;;;15.40;60.80;;;;;;5021338;28;19970;-72
2021/03/24 03:10:18;;;;;;;;;;;15.40;60.80;;;;;;5042180;28;20358;-72
2021/03/24 03:12:53;;;;;;;;;;;15.40;60.80;;;;;;5048564;28;19913;-72
2021/03/24 03:15:27;;;;;;;;;;;15.40;60.80;;;;;;5041787;28;19913;-73
2021/03/24 03:17:56;;;;;;;;;;;15.40;60.80;;;;;;5050652;28;20023;-73
2021/03/24 03:20:24;;;;;;;;;;;15.30;60.80;;;;;;5023759;28;19936;-74
2021/03/24 03:22:55;;;;;;;;;;;15.40;60.90;;;;;;5062448;28;19913;-73
2021/03/24 03:25:25;;;;;;;;;;;15.30;60.90;;;;;;5034652;28;19959;-73
2021/03/24 03:27:52;;;;;;;;;;;15.40;60.90;;;;;;5048279;28;19916;-72
2021/03/24 03:30:19;;;;;;;;;;;15.40;60.90;;;;;;5031704;28;20256;-72
2021/03/24 03:32:47;;;;;;;;;;;15.30;60.90;;;;;;5028839;28;19930;-72
2021/03/24 03:35:15;;;;;;;;;;;15.40;60.80;;;;;;5033083;28;19956;-73
2021/03/24 03:37:41;;;;;;;;;;;15.40;60.90;;;;;;5031080;28;19919;-72
2021/03/24 03:40:11;;;;;;;;;;;15.40;60.90;;;;;;5036185;28;20007;-72
2021/03/24 03:42:36;;;;;;;;;;;15.40;60.80;;;;;;5025495;28;19935;-72
2021/03/24 03:45:02;;;;;;;;;;;15.40;60.90;;;;;;5039993;28;19921;-73
2021/03/24 03:47:28;;;;;;;;;;;15.30;60.90;;;;;;5028006;28;19962;-72
2021/03/24 03:49:54;;;;;;;;;;;15.30;60.90;;;;;;5041554;28;19916;-73
2021/03/24 03:52:34;;;;;;;;;;;15.40;60.90;;;;;;5045668;28;19928;-72
2021/03/24 03:55:19;;;;;;;;;;;15.30;60.90;;;;;;5061808;28;19967;-72
2021/03/24 03:57:50;;;;;;;;;;;15.30;60.90;;;;;;5046000;28;19912;-72
2021/03/24 04:00:27;;;;;;;;;;;15.30;60.90;;;;;;5044202;28;19936;-72
2021/03/24 04:02:52;;;;;;;;;;;15.30;60.90;;;;;;5032988;28;19917;-72
2021/03/24 04:05:20;;;;;;;;;;;15.30;60.90;;;;;;5035343;28;19923;-73
2021/03/24 04:07:49;;;;;;;;;;;15.30;61.00;;;;;;5042809;28;19921;-72
2021/03/24 04:10:15;;;;;;;;;;;15.30;61.00;;;;;;5018020;28;19953;-73
2021/03/24 04:12:40;;;;;;;;;;;15.30;60.90;;;;;;5048805;28;19913;-73
2021/03/24 04:15:10;;;;;;;;;;;15.30;60.90;;;;;;5019427;28;19919;-72
2021/03/24 04:17:38;;;;;;;;;;;15.30;61.00;;;;;;5033867;28;19960;-73
2021/03/24 04:20:05;;;;;;;;;;;15.30;61.00;;;;;;5035622;28;19919;-72
2021/03/24 04:22:32;;;;;;;;;;;15.30;61.00;;;;;;5035911;28;19960;-73
2021/03/24 04:24:58;;;;;;;;;;;15.30;61.00;;;;;;5030053;28;19912;-73
2021/03/24 04:27:27;;;;;;;;;;;15.30;61.00;;;;;;5032954;28;19968;-73
2021/03/24 04:29:54;;;;;;;;;;;15.30;61.00;;;;;;5036361;28;20386;-74
2021/03/24 04:32:20;;;;;;;;;;;15.30;61.00;;;;;;5035841;28;20350;-73
2021/03/24 04:34:46;;;;;;;;;;;15.30;60.90;;;;;;5036714;28;20032;-73
2021/03/24 04:37:17;;;;;;;;;;;15.30;61.00;;;;;;5023446;28;20380;-73
2021/03/24 04:39:49;;;;;;;;;;;15.30;61.00;;;;;;5027746;28;19933;-74
2021/03/24 04:42:17;;;;;;;;;;;15.30;61.00;;;;;;5045908;28;20294;-74
2021/03/24 04:44:45;;;;;;;;;;;15.30;61.00;;;;;;5029853;28;20354;-74
2021/03/24 04:47:16;;;;;;;;;;;15.30;61.00;;;;;;5048206;28;19917;-75
2021/03/24 04:49:43;;;;;;;;;;;15.30;60.90;;;;;;5034502;28;19929;-74
2021/03/24 04:52:09;;;;;;;;;;;15.30;61.00;;;;;;5019753;28;19913;-74
2021/03/24 04:54:36;;;;;;;;;;;15.30;60.90;;;;;;5050196;28;19917;-74
2021/03/24 04:57:04;;;;;;;;;;;15.30;60.90;;;;;;5041947;28;20014;-74
2021/03/24 04:59:33;;;;;;;;;;;15.30;60.90;;;;;;5057437;28;20314;-73
2021/03/24 05:02:07;;;;;;;;;;;15.30;60.90;;;;;;5053357;28;20003;-73
2021/03/24 05:04:52;;;;;;;;;;;15.30;60.90;;;;;;5054233;28;20381;-75
2021/03/24 05:07:30;;;;;;;;;;;15.30;60.90;;;;;;5049276;28;19917;-74
2021/03/24 05:09:56;;;;;;;;;;;15.30;61.00;;;;;;5049210;28;20428;-73
2021/03/24 05:12:30;;;;;;;;;;;15.30;60.90;;;;;;5049093;28;19996;-75
2021/03/24 05:14:56;;;;;;;;;;;15.30;60.90;;;;;;5028462;28;20362;-73
2021/03/24 05:17:27;;;;;;;;;;;15.30;61.00;;;;;;5051119;28;19916;-73
2021/03/24 05:19:57;;;;;;;;;;;15.30;60.90;;;;;;5036480;28;19949;-73
2021/03/24 05:22:33;;;;;;;;;;;15.30;60.90;;;;;;5033967;28;19917;-73
2021/03/24 05:25:17;;;;;;;;;;;15.30;60.90;;;;;;5033429;28;19920;-73
2021/03/24 05:27:46;;;;;;;;;;;15.30;60.90;;;;;;5053647;28;19925;-73
2021/03/24 05:30:17;;;;;;;;;;;15.30;60.90;;;;;;5045172;28;19960;-75
2021/03/24 05:32:45;;;;;;;;;;;15.30;60.90;;;;;;5025415;28;19924;-73
2021/03/24 05:35:29;;;;;;;;;;;15.30;60.90;;;;;;5035117;28;19913;-74
2021/03/24 05:38:01;;;;;;;;;;;15.30;60.80;;;;;;5038991;28;20450;-74
2021/03/24 05:40:36;;;;;;;;;;;15.30;60.80;;;;;;5031740;28;20432;-74
2021/03/24 05:43:04;;;;;;;;;;;15.30;60.90;;;;;;5045087;28;19921;-76
2021/03/24 05:45:35;;;;;;;;;;;15.30;60.80;;;;;;5048891;28;19913;-74
2021/03/24 05:48:06;;;;;;;;;;;15.40;60.80;;;;;;5020655;28;19931;-74
2021/03/24 05:50:54;;;;;;;;;;;15.30;60.80;;;;;;5038052;28;19978;-76
2021/03/24 05:53:52;;;;;;;;;;;15.40;60.80;;;;;;5017494;28;19920;-74
2021/03/24 05:56:35;;;;;;;;;;;15.40;60.80;;;;;;5027199;28;19912;-74
2021/03/24 05:59:22;;;;;;;;;;;15.40;60.80;;;;;;5048894;28;19995;-75
2021/03/24 06:01:53;;;;;;;;;;;15.40;60.80;;;;;;5050827;28;20006;-74
2021/03/24 06:04:31;;;;;;;;;;;15.40;60.80;;;;;;5037243;28;20400;-74
2021/03/24 06:07:15;;;;;;;;;;;15.40;60.80;;;;;;5042284;28;20365;-73
2021/03/24 06:09:41;;;;;;;;;;;15.40;60.80;;;;;;5043161;28;19970;-74
2021/03/24 06:12:10;;;;;;;;;;;15.40;60.70;;;;;;5063190;28;20366;-74
2021/03/24 06:14:41;;;;;;;;;;;15.40;60.70;;;;;;5049340;28;19913;-74
2021/03/24 06:17:13;;;;;;;;;;;15.40;60.70;;;;;;5068832;28;20271;-74
2021/03/24 06:19:58;;;;;;;;;;;15.30;60.70;;;;;;5062738;28;20343;-74
2021/03/24 06:22:43;;;;;;;;;;;15.40;60.70;;;;;;5030594;28;19964;-74
2021/03/24 06:25:27;;;;;;;;;;;15.40;60.70;;;;;;5023246;28;20266;-74
2021/03/24 06:27:58;;;;;;;;;;;15.40;60.70;;;;;;5046402;28;20386;-74
2021/03/24 06:30:29;;;;;;;;;;;15.40;60.60;;;;;;5066222;28;20325;-75
2021/03/24 06:32:58;;;;;;;;;;;15.40;60.70;;;;;;5051744;28;20382;-74
2021/03/24 06:35:36;;;;;;;;;;;15.40;60.60;;;;;;5037102;28;19928;-77
2021/03/24 06:38:19;;;;;;;;;;;15.40;60.60;;;;;;5066743;28;20018;-77
2021/03/24 06:40:56;;;;;;;;;;;15.50;60.60;;;;;;5067857;28;20420;-74
2021/03/24 06:43:35;;;;;;;;;;;15.50;60.60;;;;;;5035986;28;20349;-74
2021/03/24 06:46:07;;;;;;;;;;;15.40;60.60;;;;;;5045234;28;19913;-74
2021/03/24 06:48:41;;;;;;;;;;;15.50;60.60;;;;;;5051608;28;19936;-75
2021/03/24 06:51:07;;;;;;;;;;;15.50;60.60;;;;;;5064961;28;19932;-74
2021/03/24 06:53:47;;;;;;;;;;;15.50;60.50;;;;;;5063170;28;19928;-76
2021/03/24 06:56:22;;;;;;;;;;;15.40;60.50;;;;;;5045528;28;19913;-74
2021/03/24 06:59:06;;;;;;;;;;;15.50;60.50;;;;;;5029602;28;20007;-75
2021/03/24 07:01:44;;;;;;;;;;;15.50;60.50;;;;;;5055480;28;19913;-75
2021/03/24 07:04:09;;;;;;;;;;;15.50;60.50;;;;;;5059033;28;19917;-75
2021/03/24 07:06:54;;;;;;;;;;;15.50;60.50;;;;;;5058098;28;20374;-74
2021/03/24 07:09:25;;;;;;;;;;;15.50;60.50;;;;;;5056388;28;19923;-74
2021/03/24 07:11:57;;;;;;;;;;;15.50;60.50;;;;;;5042793;28;19917;-74
2021/03/24 07:15:01;;;;;;;;;;;15.50;60.40;;;;;;5049603;28;19952;-74
2021/03/24 07:17:29;;;;;;;;;;;15.50;60.40;;;;;;4965244;28;20387;-74
2021/03/24 07:19:57;;;;;;;;;;;15.50;60.40;;;;;;4977290;28;19926;-74
2021/03/24 07:22:46;;;;;;;;;;;15.50;60.40;;;;;;4984370;28;19913;-75
2021/03/24 07:25:15;;;;;;;;;;;15.50;60.40;;;;;;5036195;28;19913;-75
2021/03/24 07:27:45;;;;;;;;;;;15.50;60.40;;;;;;5046365;28;20595;-74
2021/03/24 07:30:29;;;;;;;;;;;15.50;60.40;;;;;;5063462;28;19918;-74
2021/03/24 07:32:57;;;;;;;;;;;15.50;60.40;;;;;;5066605;28;20247;-74
2021/03/24 07:35:22;;;;;;;;;;;15.50;60.40;;;;;;5047999;28;19920;-74
2021/03/24 07:38:02;;;;;;;;;;;15.50;60.30;;;;;;5050854;28;19975;-74
2021/03/24 07:40:46;;;;;;;;;;;15.50;60.30;;;;;;5035914;28;20347;-74
2021/03/24 07:43:11;;;;;;;;;;;15.50;60.30;;;;;;5038647;28;20256;-75
2021/03/24 07:45:52;;;;;;;;;;;15.50;60.30;;;;;;5027492;28;19920;-74
2021/03/24 07:48:30;;;;;;;;;;;15.60;60.30;;;;;;5039191;28;19924;-75
2021/03/24 07:51:14;;;;;;;;;;;15.50;60.30;;;;;;5042347;28;19931;-76
2021/03/24 07:53:57;;;;;;;;;;;15.50;60.20;;;;;;5050598;28;19978;-76
2021/03/24 07:56:29;;;;;;;;;;;15.60;60.20;;;;;;5039881;28;20377;-75
2021/03/24 07:59:19;;;;;;;;;;;15.50;60.30;;;;;;5020601;28;19927;-75
2021/03/24 08:02:03;;;;;;;;;;;15.60;60.30;;;;;;5025769;28;19925;-74
2021/03/24 08:04:32;;;;;;;;;;;15.60;60.20;;;;;;5061597;28;19962;-75
2021/03/24 08:07:00;;;;;;;;;;;15.60;60.20;;;;;;5047051;28;19917;-74
2021/03/24 08:09:41;;;;;;;;;;;15.60;60.20;;;;;;5047342;28;20358;-75
2021/03/24 08:12:13;;;;;;;;;;;15.60;60.10;;;;;;5040454;28;19917;-75
2021/03/24 08:14:52;;;;;;;;;;;15.60;60.10;;;;;;5038896;28;20577;-75
2021/03/24 08:17:36;;;;;;;;;;;15.60;60.10;;;;;;5035828;28;19913;-75
2021/03/24 08:20:21;;;;;;;;;;;15.60;60.10;;;;;;5041465;28;20386;-75
2021/03/24 08:22:59;;;;;;;;;;;15.60;60.10;;;;;;5027889;28;20011;-75
2021/03/24 08:25:35;;;;;;;;;;;15.60;60.10;;;;;;5056392;28;19921;-75
2021/03/24 08:28:13;;;;;;;;;;;15.70;60.00;;;;;;5043044;28;19927;-75
2021/03/24 08:30:54;;;;;;;;;;;15.60;60.00;;;;;;5032644;28;19924;-75
2021/03/24 08:33:19;;;;;;;;;;;15.60;60.00;;;;;;5025509;28;20417;-75
2021/03/24 08:36:00;;;;;;;;;;;15.70;60.00;;;;;;5037000;28;19924;-75
2021/03/24 08:38:39;;;;;;;;;;;15.70;59.90;;;;;;5041880;28;19971;-75
2021/03/24 08:41:25;;;;;;;;;;;15.70;59.90;;;;;;5047580;28;19964;-75
2021/03/24 08:43:57;;;;;;;;;;;15.70;59.90;;;;;;5043363;28;19913;-75
2021/03/24 08:46:34;;;;;;;;;;;15.70;59.90;;;;;;5039863;28;19975;-76
2021/03/24 08:49:46;;;;;;;;;;;15.70;59.90;;;;;;5040166;28;19921;-75
2021/03/24 08:52:26;;;;;;;;;;;15.70;59.90;;;;;;4988044;28;20279;-75
2021/03/24 08:54:52;;;;;;;;;;;15.70;59.80;;;;;;4986205;28;20426;-75
2021/03/24 08:57:36;;;;;;;;;;;15.70;59.80;;;;;;4989332;28;19917;-78
2021/03/24 09:00:18;;;;;;;;;;;15.70;59.80;;;;;;4994714;28;19913;-76
2021/03/24 09:02:43;;;;;;;;;;;15.80;59.70;;;;;;4989885;28;20411;-76
2021/03/24 09:05:14;;;;;;;;;;;15.70;59.80;;;;;;4992941;28;20004;-75
2021/03/24 09:07:43;;;;;;;;;;;15.70;59.70;;;;;;4992554;28;19918;-75
2021/03/24 09:10:11;;;;;;;;;;;15.80;59.70;;;;;;4986890;28;19922;-75
2021/03/24 09:12:58;;;;;;;;;;;15.80;59.70;;;;;;4982956;28;20428;-76
2021/03/24 09:15:27;;;;;;;;;;;15.80;59.70;;;;;;4985627;28;19922;-75
2021/03/24 09:18:07;;;;;;;;;;;15.80;59.70;;;;;;4969478;28;19918;-75
2021/03/24 09:20:43;;;;;;;;;;;15.80;59.70;;;;;;4970244;28;19921;-77
2021/03/24 09:23:27;;;;;;;;;;;15.70;59.70;;;;;;5030199;28;19921;-76
2021/03/24 09:26:12;;;;;;;;;;;15.80;59.60;;;;;;5046626;28;19962;-77
2021/03/24 09:28:48;;;;;;;;;;;15.80;59.60;;;;;;5052004;28;20012;-77
2021/03/24 09:31:19;;;;;;;;;;;15.80;59.60;;;;;;5055629;28;20421;-77
2021/03/24 09:33:59;;;;;;;;;;;15.80;59.50;;;;;;5062451;28;20058;-77
2021/03/24 09:36:45;;;;;;;;;;;15.80;59.50;;;;;;5026994;28;19913;-76
2021/03/24 09:39:22;;;;;;;;;;;15.80;59.50;;;;;;5059914;28;19912;-76
2021/03/24 09:41:48;;;;;;;;;;;15.80;59.40;;;;;;5034634;28;20004;-78
2021/03/24 09:44:17;;;;;;;;;;;15.80;59.50;;;;;;5049795;28;20000;-77
2021/03/24 09:46:47;;;;;;;;;;;15.80;59.40;;;;;;5033306;28;20255;-78
2021/03/24 09:49:20;;;;;;;;;;;15.80;59.50;;;;;;5036107;28;19972;-77
2021/03/24 09:51:49;;;;;;;;;;;15.80;59.40;;;;;;5044816;28;19917;-77
2021/03/24 09:54:17;;;;;;;;;;;15.80;59.40;;;;;;5044990;28;19912;-77
2021/03/24 09:56:44;;;;;;;;;;;15.80;59.40;;;;;;5054631;28;20370;-77
2021/03/24 09:59:22;;;;;;;;;;;15.80;59.40;;;;;;5052804;28;19917;-76
2021/03/24 10:02:09;;;;;;;;;;;15.80;59.30;;;;;;5041526;28;19921;-79
2021/03/24 10:04:41;;;;;;;;;;;15.80;59.30;;;;;;5039760;28;19913;-76
2021/03/24 10:07:22;;;;;;;;;;;15.80;59.30;;;;;;5041274;28;20465;-77
2021/03/24 10:09:53;;;;;;;;;;;15.90;59.30;;;;;;5051703;28;19925;-78
2021/03/24 10:12:28;;;;;;;;;;;15.80;59.30;;;;;;5051059;28;19967;-80
2021/03/24 10:15:03;;;;;;;;;;;15.80;59.30;;;;;;5047167;28;20362;-77
2021/03/24 10:17:36;;;;;;;;;;;15.80;59.30;;;;;;5068731;28;19913;-77
2021/03/24 10:20:17;;;;;;;;;;;15.80;59.20;;;;;;5034722;28;19913;-77
2021/03/24 10:22:55;;;;;;;;;;;15.90;59.20;;;;;;5046618;28;20291;-77
2021/03/24 10:25:21;;;;;;;;;;;15.90;59.20;;;;;;5029632;28;19996;-77
2021/03/24 10:27:49;;;;;;;;;;;15.90;59.20;;;;;;5064135;28;20023;-77
2021/03/24 10:30:15;;;;;;;;;;;15.90;59.20;;;;;;5031138;28;19921;-77
2021/03/24 10:32:59;;;;;;;;;;;15.90;59.20;;;;;;5063458;28;20397;-76
2021/03/24 10:35:24;;;;;;;;;;;15.90;59.20;;;;;;5020988;28;19928;-76
2021/03/24 10:37:57;;;;;;;;;;;15.90;59.20;;;;;;5042270;28;19925;-76
2021/03/24 10:40:31;;;;;;;;;;;15.90;59.20;;;;;;5035605;28;19931;-76
2021/03/24 10:42:57;;;;;;;;;;;15.90;59.20;;;;;;5028391;28;20058;-76
2021/03/24 10:45:26;;;;;;;;;;;15.90;59.10;;;;;;5040421;28;20007;-76
2021/03/24 10:48:13;;;;;;;;;;;16.00;59.10;;;;;;5019743;28;20277;-78
2021/03/24 10:50:41;;;;;;;;;;;15.90;59.10;;;;;;5011977;28;20388;-75
2021/03/24 10:53:26;;;;;;;;;;;16.00;59.10;;;;;;5040777;28;20353;-77
2021/03/24 10:56:11;;;;;;;;;;;15.90;59.00;;;;;;5041815;28;20016;-76
2021/03/24 10:58:55;;;;;;;;;;;16.00;59.00;;;;;;5039079;28;19928;-76
2021/03/24 11:01:25;;;;;;;;;;;16.00;59.00;;;;;;5047865;28;19920;-77
2021/03/24 11:04:09;;;;;;;;;;;16.00;59.00;;;;;;5026860;28;20129;-76
2021/03/24 11:06:37;;;;;;;;;;;16.00;59.00;;;;;;5032613;28;19963;-75
2021/03/24 11:09:02;;;;;;;;;;;16.00;59.00;;;;;;5033000;28;19925;-76
2021/03/24 11:11:41;;;;;;;;;;;16.00;58.90;;;;;;5063254;28;19927;-75
2021/03/24 11:14:18;;;;;;;;;;;16.00;58.90;;;;;;5046303;28;19917;-75
2021/03/24 11:16:46;;;;;;;;;;;16.00;58.90;;;;;;5028482;28;19925;-75
2021/03/24 11:19:15;;;;;;;;;;;16.00;58.90;;;;;;5033670;28;19963;-76
2021/03/24 11:21:43;;;;;;;;;;;16.00;58.90;;;;;;5063126;28;20370;-76
2021/03/24 11:24:18;;;;;;;;;;;16.00;58.90;;;;;;5046483;28;20026;-74
2021/03/24 11:26:48;;;;;;;;;;;16.00;58.80;;;;;;5051802;28;19952;-75
2021/03/24 11:29:21;;;;;;;;;;;16.00;58.80;;;;;;5032278;28;21549;-75
2021/03/24 11:32:02;;;;;;;;;;;16.00;58.80;;;;;;5051928;28;20339;-75
2021/03/24 11:34:52;;;;;;;;;;;16.10;58.80;;;;;;5058221;28;19917;-75
2021/03/24 11:37:40;;;;;;;;;;;16.10;58.80;;;;;;5026077;28;19920;-77
2021/03/24 11:40:17;;;;;;;;;;;16.10;58.80;;;;;;5028436;28;19920;-76
2021/03/24 11:42:57;;;;;;;;;;;16.10;58.70;;;;;;5049525;28;20708;-76
2021/03/24 11:45:24;;;;;;;;;;;16.00;58.70;;;;;;5025877;28;19917;-75
2021/03/24 11:48:00;;;;;;;;;;;16.10;58.70;;;;;;5044021;28;19913;-76
2021/03/24 11:50:26;;;;;;;;;;;16.00;58.80;;;;;;5039630;28;19960;-75
2021/03/24 11:53:00;;;;;;;;;;;16.10;58.70;;;;;;5052324;28;19944;-75
2021/03/24 11:55:33;;;;;;;;;;;16.10;58.70;;;;;;5036751;28;20067;-76
2021/03/24 11:57:59;;;;;;;;;;;16.10;58.70;;;;;;5058434;28;20064;-76
2021/03/24 12:00:34;;;;;;;;;;;16.10;58.60;;;;;;5025560;28;19992;-75
2021/03/24 12:03:09;;;;;;;;;;;16.10;58.70;;;;;;5032834;28;20428;-76
2021/03/24 12:05:40;;;;;;;;;;;16.10;58.60;;;;;;5068377;28;19920;-75
2021/03/24 12:08:12;;;;;;;;;;;16.10;58.60;;;;;;5041291;28;19917;-75
2021/03/24 12:10:41;;;;;;;;;;;16.10;58.60;;;;;;5048095;28;19917;-75
2021/03/24 12:13:20;;;;;;;;;;;16.10;58.60;;;;;;5030301;28;19913;-75
2021/03/24 12:15:57;;;;;;;;;;;16.10;58.60;;;;;;5049908;28;20393;-76
2021/03/24 12:18:23;;;;;;;;;;;16.10;58.60;;;;;;5042589;28;19917;-75
2021/03/24 12:20:48;;;;;;;;;;;16.10;58.60;;;;;;5048920;28;20008;-75
2021/03/24 12:23:14;;;;;;;;;;;16.10;58.50;;;;;;5043325;28;20282;-75
2021/03/24 12:25:44;;;;;;;;;;;16.20;58.50;;;;;;5050121;28;19920;-75
2021/03/24 12:28:11;;;;;;;;;;;16.20;58.50;;;;;;5027905;28;20377;-74
2021/03/24 12:30:53;;;;;;;;;;;16.20;58.50;;;;;;5053701;28;19994;-74
2021/03/24 12:33:22;;;;;;;;;;;16.10;58.50;;;;;;5025723;28;21257;-75
2021/03/24 12:35:49;;;;;;;;;;;16.20;58.50;;;;;;5060316;28;20433;-77
2021/03/24 12:38:22;;;;;;;;;;;16.20;58.50;;;;;;5037849;28;19974;-75
2021/03/24 12:40:53;;;;;;;;;;;16.20;58.50;;;;;;5039527;28;20408;-75
2021/03/24 12:43:24;;;;;;;;;;;16.10;58.50;;;;;;5048540;28;19913;-75
2021/03/24 12:45:50;;;;;;;;;;;16.20;58.50;;;;;;5057084;28;19963;-76
2021/03/24 12:48:21;;;;;;;;;;;16.20;58.50;;;;;;5041898;28;19916;-75
2021/03/24 12:51:06;;;;;;;;;;;16.20;58.50;;;;;;5050752;28;19924;-76
2021/03/24 12:53:35;;;;;;;;;;;16.20;58.50;;;;;;5061568;28;19921;-75
2021/03/24 12:56:07;;;;;;;;;;;16.20;58.50;;;;;;5037078;28;19951;-74
2021/03/24 12:58:43;;;;;;;;;;;16.20;58.40;;;;;;5077901;28;20309;-74
2021/03/24 13:01:19;;;;;;;;;;;16.20;58.40;;;;;;5054275;28;19921;-74
2021/03/24 13:03:59;;;;;;;;;;;16.20;58.40;;;;;;5051217;28;19947;-74
2021/03/24 13:06:30;;;;;;;;;;;16.20;58.40;;;;;;5038343;28;20425;-74
2021/03/24 13:09:19;;;;;;;;;;;16.20;58.30;;;;;;5046774;28;19971;-74
2021/03/24 13:11:52;;;;;;;;;;;16.20;58.40;;;;;;5060744;28;19917;-74
2021/03/24 13:14:18;;;;;;;;;;;16.20;58.30;;;;;;5028173;28;19983;-74
2021/03/24 13:16:43;;;;;;;;;;;16.20;58.30;;;;;;5034776;28;19963;-74
2021/03/24 13:19:19;;;;;;;;;;;16.30;58.30;;;;;;5061926;28;19913;-74
2021/03/24 13:22:00;;;;;;;;;;;16.20;58.30;;;;;;5045325;28;19913;-74
2021/03/24 13:24:26;;;;;;;;;;;16.30;58.30;;;;;;5050835;28;19913;-74
2021/03/24 13:26:54;;;;;;;;;;;16.30;58.30;;;;;;5047689;28;19913;-76
2021/03/24 13:29:24;;;;;;;;;;;16.30;58.30;;;;;;5052855;28;19925;-74
2021/03/24 13:31:49;;;;;;;;;;;16.30;58.30;;;;;;5027661;28;20023;-74
2021/03/24 13:34:29;;;;;;;;;;;16.20;58.30;;;;;;5041141;28;20382;-74
2021/03/24 13:36:59;;;;;;;;;;;16.30;58.20;;;;;;5024395;28;19920;-74
2021/03/24 13:39:24;;;;;;;;;;;16.30;58.20;;;;;;5051831;28;20007;-74
2021/03/24 13:41:52;;;;;;;;;;;16.30;58.20;;;;;;5052864;28;20004;-74
2021/03/24 13:44:36;;;;;;;;;;;16.30;58.20;;;;;;5040150;28;19959;-74
2021/03/24 13:47:43;;;;;;;;;;;16.30;58.20;;;;;;5062025;28;19921;-75
2021/03/24 13:50:18;;;;;;;;;;;16.30;58.20;;;;;;5002689;28;19991;-74
2021/03/24 13:52:43;;;;;;;;;;;16.30;58.20;;;;;;5062446;28;19913;-74
2021/03/24 13:55:18;;;;;;;;;;;16.30;58.20;;;;;;5057554;28;20285;-74
2021/03/24 13:57:52;;;;;;;;;;;16.30;58.20;;;;;;5037482;28;19912;-74
2021/03/24 14:00:29;;;;;;;;;;;16.30;58.20;;;;;;5039725;28;19925;-75
2021/03/24 14:03:21;;;;;;;;;;;16.30;58.20;;;;;;5035291;28;19920;-74
2021/03/24 14:05:54;;;;;;;;;;;16.30;58.20;;;;;;5036508;28;19935;-76
2021/03/24 14:08:23;;;;;;;;;;;16.30;58.10;;;;;;5052912;28;20313;-75
2021/03/24 14:11:07;;;;;;;;;;;16.30;58.10;;;;;;5051044;28;19950;-75
2021/03/24 14:13:51;;;;;;;;;;;16.30;58.20;;;;;;5043397;28;20386;-76
2021/03/24 14:16:35;;;;;;;;;;;16.30;58.20;;;;;;5048099;28;19913;-75
2021/03/24 14:19:14;;;;;;;;;;;16.30;58.20;;;;;;5050323;28;19917;-75
2021/03/24 14:22:00;;;;;;;;;;;16.30;58.20;;;;;;5022211;28;19916;-75
2021/03/24 14:24:26;;;;;;;;;;;16.30;58.10;;;;;;5013900;28;19913;-75
2021/03/24 14:26:51;;;;;;;;;;;16.30;58.20;;;;;;5027703;28;20323;-76
2021/03/24 14:29:43;;;;;;;;;;;16.30;58.20;;;;;;5054500;28;20386;-75
2021/03/24 14:32:08;;;;;;;;;;;16.30;58.20;;;;;;5039657;28;19989;-75
2021/03/24 14:34:43;;;;;;;;;;;16.30;58.10;;;;;;5040157;28;19921;-76
2021/03/24 14:37:17;;;;;;;;;;;16.30;58.10;;;;;;5041202;28;21356;-75
2021/03/24 14:39:59;;;;;;;;;;;16.30;58.20;;;;;;5043384;28;20363;-75
2021/03/24 14:42:33;;;;;;;;;;;16.30;58.20;;;;;;5047172;28;19913;-75
2021/03/24 14:45:18;;;;;;;;;;;16.30;58.10;;;;;;5045477;28;20279;-75
2021/03/24 14:48:04;;;;;;;;;;;16.30;58.10;;;;;;5061908;28;19927;-75